createdAt,value
2018-10-17T00:00:23.441Z,14.15
2018-10-17T00:02:54.663Z,14.16
2018-10-17T00:05:23.660Z,14.16
2018-10-17T00:07:53.526Z,14.16
2018-10-17T00:10:23.657Z,14.12
2018-10-17T00:12:52.995Z,14.09
2018-10-17T00:15:22.598Z,14.08
2018-10-17T00:17:52.569Z,14.09
2018-10-17T00:20:21.717Z,14.09
2018-10-17T00:22:51.144Z,14.10
2018-10-17T00:25:20.238Z,14.10
2018-10-17T00:27:50.177Z,14.09
2018-10-17T00:30:19.829Z,14.09
2018-10-17T00:32:49.907Z,14.08
2018-10-17T00:35:19.353Z,14.08
2018-10-17T00:37:49.583Z,14.09
2018-10-17T00:40:18.568Z,14.09
2018-10-17T00:42:48.149Z,14.05
2018-10-17T00:45:17.228Z,14.04
2018-10-17T00:47:46.808Z,14.03
2018-10-17T00:50:16.888Z,14.03
2018-10-17T00:52:46.909Z,13.98
2018-10-17T00:55:16.303Z,13.94
2018-10-17T00:57:45.650Z,13.92
2018-10-17T01:00:17.024Z,13.90
2018-10-17T01:02:47.082Z,13.92
2018-10-17T01:05:18.160Z,13.89
2018-10-17T01:07:48.206Z,13.89
2018-10-17T01:10:17.692Z,13.89
2018-10-17T01:12:47.414Z,13.85
2018-10-17T01:15:17.586Z,13.81
2018-10-17T01:17:47.278Z,13.78
2018-10-17T01:20:17.384Z,13.78
2018-10-17T01:22:46.641Z,13.76
2018-10-17T01:25:15.761Z,13.75
2018-10-17T01:27:45.477Z,13.73
2018-10-17T01:30:14.478Z,13.69
2018-10-17T01:32:43.753Z,13.65
2018-10-17T01:35:13.152Z,13.65
2018-10-17T01:37:43.443Z,13.65
2018-10-17T01:40:12.389Z,13.65
2018-10-17T01:42:43.188Z,13.65
2018-10-17T01:45:13.322Z,13.66
2018-10-17T01:47:42.762Z,13.67
2018-10-17T01:50:12.823Z,13.67
2018-10-17T01:52:42.826Z,13.69
2018-10-17T01:55:12.012Z,13.68
2018-10-17T01:57:41.534Z,13.70
2018-10-17T02:00:11.414Z,13.68
2018-10-17T02:02:41.098Z,13.64
2018-10-17T02:05:10.157Z,13.63
2018-10-17T02:07:39.830Z,13.62
2018-10-17T02:10:09.540Z,13.60
2018-10-17T02:12:39.450Z,13.60
2018-10-17T02:15:08.645Z,13.56
2018-10-17T02:17:37.542Z,13.54
2018-10-17T02:20:07.453Z,13.53
2018-10-17T02:22:36.859Z,13.51
2018-10-17T02:25:07.435Z,13.54
2018-10-17T02:27:36.438Z,13.51
2018-10-17T02:30:06.146Z,13.50
2018-10-17T02:32:34.981Z,13.43
2018-10-17T02:35:09.848Z,13.39
2018-10-17T02:37:38.738Z,13.37
2018-10-17T02:40:08.317Z,13.35
2018-10-17T02:42:38.053Z,13.34
2018-10-17T02:45:08.271Z,13.32
2018-10-17T02:47:39.209Z,13.31
2018-10-17T02:50:14.874Z,13.30
2018-10-17T02:52:43.967Z,13.29
2018-10-17T02:55:14.626Z,13.31
2018-10-17T02:57:43.595Z,13.29
2018-10-17T03:00:13.471Z,13.27
2018-10-17T03:02:43.446Z,13.28
2018-10-17T03:05:13.391Z,13.30
2018-10-17T03:07:43.105Z,13.29
2018-10-17T03:10:12.106Z,13.30
2018-10-17T03:12:41.512Z,13.31
2018-10-17T03:15:11.108Z,13.32
2018-10-17T03:17:41.047Z,13.26
2018-10-17T03:20:11.427Z,13.23
2018-10-17T03:22:40.622Z,13.24
2018-10-17T03:25:10.662Z,13.23
2018-10-17T03:27:39.928Z,13.21
2018-10-17T03:30:09.395Z,13.21
2018-10-17T03:32:39.090Z,13.23
2018-10-17T03:35:09.511Z,13.19
2018-10-17T03:37:38.755Z,13.14
2018-10-17T03:40:08.677Z,13.13
2018-10-17T03:42:37.888Z,13.11
2018-10-17T03:45:07.968Z,13.11
2018-10-17T03:47:38.731Z,13.10
2018-10-17T03:50:08.623Z,13.09
2018-10-17T03:52:38.552Z,13.08
2018-10-17T03:55:08.154Z,13.07
2018-10-17T03:57:39.255Z,13.05
2018-10-17T04:00:09.967Z,13.03
2018-10-17T04:02:39.302Z,13.01
2018-10-17T04:05:09.752Z,12.99
2018-10-17T04:07:39.646Z,12.98
2018-10-17T04:10:09.291Z,12.96
2018-10-17T04:12:38.751Z,12.96
2018-10-17T04:15:09.155Z,12.97
2018-10-17T04:17:39.401Z,12.97
2018-10-17T04:20:09.592Z,12.97
2018-10-17T04:22:43.067Z,12.97
2018-10-17T04:25:12.754Z,12.97
2018-10-17T04:27:42.141Z,12.95
2018-10-17T04:30:11.888Z,12.95
2018-10-17T04:32:41.794Z,12.95
2018-10-17T04:35:11.432Z,12.93
2018-10-17T04:37:41.088Z,12.93
2018-10-17T04:40:10.953Z,12.90
2018-10-17T04:42:40.961Z,12.89
2018-10-17T04:45:10.520Z,12.88
2018-10-17T04:47:39.605Z,12.86
2018-10-17T04:50:10.193Z,12.84
2018-10-17T04:52:40.824Z,12.84
2018-10-17T04:55:11.367Z,12.82
2018-10-17T04:57:41.216Z,12.82
2018-10-17T05:00:13.474Z,12.82
2018-10-17T05:02:44.355Z,12.79
2018-10-17T05:05:13.947Z,12.78
2018-10-17T05:07:43.436Z,12.77
2018-10-17T05:10:12.989Z,12.76
2018-10-17T05:12:42.191Z,12.74
2018-10-17T05:15:11.968Z,12.72
2018-10-17T05:17:41.524Z,12.70
2018-10-17T05:20:11.868Z,12.70
2018-10-17T05:22:42.052Z,12.70
2018-10-17T05:25:11.091Z,12.69
2018-10-17T05:27:41.067Z,12.66
2018-10-17T05:30:10.665Z,12.65
2018-10-17T05:32:40.205Z,12.65
2018-10-17T05:35:10.168Z,12.66
2018-10-17T05:37:39.361Z,12.64
2018-10-17T05:40:09.439Z,12.64
2018-10-17T05:42:39.688Z,12.63
2018-10-17T05:45:09.387Z,12.63
2018-10-17T05:47:38.743Z,12.62
2018-10-17T05:50:08.850Z,12.61
2018-10-17T05:52:39.352Z,12.60
2018-10-17T05:55:08.527Z,12.60
2018-10-17T05:57:38.770Z,12.60
2018-10-17T06:00:08.553Z,12.60
2018-10-17T06:02:38.833Z,12.62
2018-10-17T06:05:09.643Z,12.62
2018-10-17T06:07:40.321Z,12.63
2018-10-17T06:10:10.635Z,12.65
2018-10-17T06:12:41.458Z,12.64
2018-10-17T06:15:11.626Z,12.61
2018-10-17T06:17:41.992Z,12.60
2018-10-17T06:20:13.224Z,12.54
2018-10-17T06:22:42.967Z,12.52
2018-10-17T06:25:12.278Z,12.51
2018-10-17T06:27:42.355Z,12.50
2018-10-17T06:30:11.939Z,12.51
2018-10-17T06:32:41.625Z,12.53
2018-10-17T06:35:11.349Z,12.40
2018-10-17T06:37:41.625Z,12.41
2018-10-17T06:40:11.214Z,12.40
2018-10-17T06:42:40.587Z,12.36
2018-10-17T06:45:10.540Z,12.39
2018-10-17T06:47:41.131Z,12.38
2018-10-17T06:50:10.749Z,12.33
2018-10-17T06:52:40.279Z,12.20
2018-10-17T06:55:09.799Z,12.10
2018-10-17T06:57:40.398Z,12.05
2018-10-17T07:00:10.431Z,12.14
2018-10-17T07:02:40.482Z,12.17
2018-10-17T07:05:10.725Z,12.22
2018-10-17T07:07:40.497Z,12.29
2018-10-17T07:10:11.007Z,12.28
2018-10-17T07:12:41.461Z,12.34
2018-10-17T07:15:11.506Z,12.44
2018-10-17T07:17:40.666Z,12.47
2018-10-17T07:20:10.652Z,12.49
2018-10-17T07:22:40.718Z,12.57
2018-10-17T07:25:10.465Z,12.56
2018-10-17T07:27:40.563Z,12.56
2018-10-17T07:30:10.850Z,12.61
2018-10-17T07:32:40.539Z,12.64
2018-10-17T07:35:11.216Z,12.75
2018-10-17T07:37:41.188Z,12.88
2018-10-17T07:40:10.136Z,12.92
2018-10-17T07:42:39.744Z,12.95
2018-10-17T07:45:09.020Z,12.93
2018-10-17T07:47:38.742Z,12.96
2018-10-17T07:50:09.016Z,12.99
2018-10-17T07:52:39.200Z,13.07
2018-10-17T07:55:09.748Z,13.11
2018-10-17T07:57:39.423Z,13.20
2018-10-17T08:00:14.139Z,13.28
2018-10-17T08:02:43.631Z,13.34
2018-10-17T08:05:14.490Z,13.42
2018-10-17T08:07:44.948Z,13.46
2018-10-17T08:10:14.140Z,13.54
2018-10-17T08:12:44.329Z,13.59
2018-10-17T08:15:13.391Z,13.66
2018-10-17T08:17:42.617Z,13.71
2018-10-17T08:20:13.323Z,13.83
2018-10-17T08:22:43.266Z,13.87
2018-10-17T08:25:13.593Z,13.98
2018-10-17T08:27:43.767Z,13.99
2018-10-17T08:30:13.497Z,14.07
2018-10-17T08:32:42.932Z,14.13
2018-10-17T08:35:12.709Z,14.21
2018-10-17T08:37:42.067Z,14.32
2018-10-17T08:40:11.695Z,14.46
2018-10-17T08:42:41.168Z,14.59
2018-10-17T08:45:11.235Z,14.72
2018-10-17T08:47:40.984Z,14.78
2018-10-17T08:50:10.848Z,14.91
2018-10-17T08:52:40.157Z,15.00
2018-10-17T08:55:10.625Z,15.13
2018-10-17T08:57:40.959Z,15.24
2018-10-17T09:00:10.420Z,15.37
2018-10-17T09:02:40.499Z,15.47
2018-10-17T09:05:09.541Z,15.59
2018-10-17T09:07:40.234Z,15.70
2018-10-17T09:10:10.050Z,15.77
2018-10-17T09:12:40.034Z,15.91
2018-10-17T09:15:09.681Z,15.98
2018-10-17T09:17:39.476Z,16.04
2018-10-17T09:20:09.504Z,16.08
2018-10-17T09:22:39.043Z,16.13
2018-10-17T09:25:09.317Z,16.20
2018-10-17T09:27:39.004Z,16.28
2018-10-17T09:30:09.958Z,16.30
2018-10-17T09:32:43.591Z,16.40
2018-10-17T09:35:13.017Z,16.50
2018-10-17T09:37:43.187Z,16.62
2018-10-17T09:40:13.048Z,16.71
2018-10-17T09:42:42.147Z,16.85
2018-10-17T09:45:11.991Z,16.96
2018-10-17T09:47:41.852Z,17.13
2018-10-17T09:50:11.921Z,17.23
2018-10-17T09:52:41.218Z,17.32
2018-10-17T09:55:12.065Z,17.41
2018-10-17T09:57:41.729Z,17.43
2018-10-17T10:00:16.272Z,17.44
2018-10-17T10:02:45.568Z,17.54
2018-10-17T10:05:14.623Z,17.53
2018-10-17T10:07:43.786Z,17.54
2018-10-17T10:10:12.737Z,17.57
2018-10-17T10:12:42.158Z,17.62
2018-10-17T10:15:12.165Z,17.74
2018-10-17T10:17:41.367Z,17.88
2018-10-17T10:20:12.117Z,17.94
2018-10-17T10:22:41.125Z,17.99
2018-10-17T10:25:10.362Z,17.98
2018-10-17T10:27:40.141Z,18.02
2018-10-17T10:30:10.421Z,18.09
2018-10-17T10:32:40.287Z,18.10
2018-10-17T10:35:10.135Z,18.07
2018-10-17T10:37:39.846Z,18.14
2018-10-17T10:40:09.938Z,18.24
2018-10-17T10:42:39.396Z,18.28
2018-10-17T10:45:08.987Z,18.17
2018-10-17T10:47:38.731Z,18.27
2018-10-17T10:50:09.702Z,18.33
2018-10-17T10:52:39.778Z,18.36
2018-10-17T10:55:08.756Z,18.47
2018-10-17T10:57:38.103Z,18.67
2018-10-17T11:00:08.499Z,18.75
2018-10-17T11:02:37.471Z,18.96
2018-10-17T11:05:06.589Z,19.30
2018-10-17T11:07:36.506Z,19.20
2018-10-17T11:10:05.996Z,19.10
2018-10-17T11:12:35.859Z,18.99
2018-10-17T11:15:06.001Z,19.02
2018-10-17T11:17:34.877Z,19.13
2018-10-17T11:20:04.256Z,19.27
2018-10-17T11:22:33.223Z,19.38
2018-10-17T11:25:04.571Z,19.30
2018-10-17T11:27:33.884Z,19.17
2018-10-17T11:30:02.896Z,19.02
2018-10-17T11:32:31.834Z,19.03
2018-10-17T11:35:08.030Z,19.10
2018-10-17T11:37:38.627Z,19.14
2018-10-17T11:40:08.156Z,19.08
2018-10-17T11:42:37.286Z,19.06
2018-10-17T11:45:07.105Z,19.02
2018-10-17T11:47:36.383Z,18.97
2018-10-17T11:50:07.109Z,18.98
2018-10-17T11:52:36.160Z,18.95
2018-10-17T11:55:05.431Z,18.92
2018-10-17T11:57:34.687Z,18.95
2018-10-17T12:00:04.295Z,18.90
2018-10-17T12:02:33.594Z,18.83
2018-10-17T12:05:03.153Z,18.89
2018-10-17T12:07:32.618Z,18.94
2018-10-17T12:10:03.290Z,18.96
2018-10-17T12:12:32.295Z,18.96
2018-10-17T12:15:01.293Z,18.94
2018-10-17T12:17:31.213Z,18.91
2018-10-17T12:20:01.104Z,18.89
2018-10-17T12:22:30.962Z,18.98
2018-10-17T12:25:01.312Z,18.99
2018-10-17T12:27:30.544Z,18.98
2018-10-17T12:30:00.757Z,18.95
2018-10-17T12:32:29.954Z,18.93
2018-10-17T12:35:00.404Z,18.88
2018-10-17T12:37:29.945Z,18.90
2018-10-17T12:39:59.874Z,18.96
2018-10-17T12:42:29.679Z,19.02
2018-10-17T12:45:00.049Z,19.03
2018-10-17T12:47:29.727Z,18.98
2018-10-17T12:49:59.588Z,18.96
2018-10-17T12:52:30.235Z,18.93
2018-10-17T12:54:59.179Z,19.00
2018-10-17T12:57:29.208Z,19.01
2018-10-17T12:59:59.200Z,19.04
2018-10-17T13:02:28.424Z,19.06
2018-10-17T13:04:58.297Z,19.08
2018-10-17T13:07:28.966Z,19.09
2018-10-17T13:09:59.300Z,19.14
2018-10-17T13:12:28.908Z,19.19
2018-10-17T13:14:58.917Z,19.16
2018-10-17T13:17:28.668Z,19.11
2018-10-17T13:19:58.588Z,19.12
2018-10-17T13:22:27.976Z,19.11
2018-10-17T13:24:58.362Z,19.14
2018-10-17T13:27:28.776Z,19.20
2018-10-17T13:29:58.915Z,19.19
2018-10-17T13:32:28.592Z,19.18
2018-10-17T13:34:59.579Z,19.16
2018-10-17T13:37:30.170Z,19.16
2018-10-17T13:40:01.702Z,19.22
2018-10-17T13:42:31.350Z,19.20
2018-10-17T13:45:00.689Z,19.14
2018-10-17T13:47:29.730Z,19.13
2018-10-17T13:49:58.602Z,19.14
2018-10-17T13:52:27.983Z,19.18
2018-10-17T13:54:57.506Z,19.13
2018-10-17T13:57:26.633Z,19.17
2018-10-17T13:59:56.299Z,19.13
2018-10-17T14:02:25.529Z,19.16
2018-10-17T14:04:55.783Z,19.17
2018-10-17T14:07:25.960Z,19.16
2018-10-17T14:09:56.364Z,19.23
2018-10-17T14:12:26.514Z,19.25
2018-10-17T14:14:56.991Z,19.28
2018-10-17T14:17:26.025Z,19.28
2018-10-17T14:19:56.994Z,19.24
2018-10-17T14:22:26.560Z,19.27
2018-10-17T14:24:55.568Z,19.25
2018-10-17T14:27:25.961Z,19.24
2018-10-17T14:29:55.945Z,19.21
2018-10-17T14:32:24.915Z,19.14
2018-10-17T14:34:54.302Z,19.12
2018-10-17T14:37:24.188Z,19.09
2018-10-17T14:39:53.004Z,19.04
2018-10-17T14:42:23.095Z,19.01
2018-10-17T14:44:51.882Z,19.04
2018-10-17T14:47:20.707Z,18.99
2018-10-17T14:49:49.791Z,18.97
2018-10-17T14:52:18.603Z,18.95
2018-10-17T14:54:47.539Z,18.94
2018-10-17T14:57:18.010Z,18.91
2018-10-17T14:59:47.635Z,18.87
2018-10-17T15:02:17.483Z,18.81
2018-10-17T15:04:47.338Z,18.78
2018-10-17T15:07:17.093Z,18.75
2018-10-17T15:09:47.574Z,18.77
2018-10-17T15:12:18.263Z,18.72
2018-10-17T15:14:47.671Z,18.67
2018-10-17T15:17:17.513Z,18.61
2018-10-17T15:19:47.285Z,18.53
2018-10-17T15:22:17.368Z,18.43
2018-10-17T15:24:46.547Z,18.41
2018-10-17T15:27:16.849Z,18.39
2018-10-17T15:29:47.099Z,18.34
2018-10-17T15:32:16.372Z,18.28
2018-10-17T15:34:46.763Z,18.22
2018-10-17T15:37:17.931Z,18.14
2018-10-17T15:39:48.684Z,18.08
2018-10-17T15:42:18.413Z,18.03
2018-10-17T15:44:48.647Z,17.99
2018-10-17T15:47:18.335Z,17.97
2018-10-17T15:49:48.878Z,17.95
2018-10-17T15:52:18.355Z,17.91
2018-10-17T15:54:48.844Z,17.87
2018-10-17T15:57:18.765Z,17.81
2018-10-17T15:59:48.987Z,17.75
2018-10-17T16:02:19.994Z,17.68
2018-10-17T16:04:50.390Z,17.62
2018-10-17T16:07:20.204Z,17.57
2018-10-17T16:09:50.417Z,17.51
2018-10-17T16:12:19.502Z,17.47
2018-10-17T16:14:50.041Z,17.41
2018-10-17T16:17:19.658Z,17.35
2018-10-17T16:19:49.228Z,17.31
2018-10-17T16:22:18.814Z,17.27
2018-10-17T16:24:47.931Z,17.24
2018-10-17T16:27:17.027Z,17.20
2018-10-17T16:29:47.107Z,17.18
2018-10-17T16:32:16.728Z,17.14
2018-10-17T16:34:46.390Z,17.11
2018-10-17T16:37:15.384Z,17.08
2018-10-17T16:39:44.790Z,17.05
2018-10-17T16:42:14.711Z,17.02
2018-10-17T16:44:44.106Z,17.00
2018-10-17T16:47:14.266Z,16.98
2018-10-17T16:49:43.096Z,16.95
2018-10-17T16:52:11.910Z,16.92
2018-10-17T16:54:41.326Z,16.89
2018-10-17T16:57:12.153Z,16.86
2018-10-17T16:59:41.751Z,16.84
2018-10-17T17:02:12.428Z,16.81
2018-10-17T17:04:42.986Z,16.79
2018-10-17T17:07:13.379Z,16.75
2018-10-17T17:09:43.367Z,16.74
2018-10-17T17:12:12.281Z,16.69
2018-10-17T17:14:41.331Z,16.66
2018-10-17T17:17:10.545Z,16.63
2018-10-17T17:19:40.152Z,16.60
2018-10-17T17:22:10.568Z,16.58
2018-10-17T17:24:40.930Z,16.55
2018-10-17T17:27:10.532Z,16.53
2018-10-17T17:29:40.302Z,16.50
2018-10-17T17:32:11.401Z,16.48
2018-10-17T17:34:41.647Z,16.47
2018-10-17T17:37:11.492Z,16.45
2018-10-17T17:39:41.394Z,16.42
2018-10-17T17:42:11.334Z,16.41
2018-10-17T17:44:41.188Z,16.38
2018-10-17T17:47:10.803Z,16.36
2018-10-17T17:49:40.580Z,16.33
2018-10-17T17:52:10.715Z,16.33
2018-10-17T17:54:39.731Z,16.30
2018-10-17T17:57:09.142Z,16.28
2018-10-17T17:59:38.750Z,16.26
2018-10-17T18:02:08.946Z,16.24
2018-10-17T18:04:39.585Z,16.22
2018-10-17T18:07:08.956Z,16.21
2018-10-17T18:09:38.817Z,16.20
2018-10-17T18:12:08.750Z,16.17
2018-10-17T18:14:38.225Z,16.17
2018-10-17T18:17:07.363Z,16.15
2018-10-17T18:19:37.198Z,16.13
2018-10-17T18:22:06.212Z,16.12
2018-10-17T18:24:35.187Z,16.11
2018-10-17T18:27:04.639Z,16.10
2018-10-17T18:29:33.345Z,16.07
2018-10-17T18:32:02.743Z,16.07
2018-10-17T18:34:31.920Z,16.06
2018-10-17T18:37:00.888Z,16.04
2018-10-17T18:39:30.247Z,16.03
2018-10-17T18:41:59.620Z,16.00
2018-10-17T18:44:28.662Z,16.00
2018-10-17T18:46:58.313Z,15.96
2018-10-17T18:49:29.845Z,15.95
2018-10-17T18:52:00.011Z,15.94
2018-10-17T18:54:29.906Z,15.88
2018-10-17T18:56:59.946Z,15.84
2018-10-17T18:59:30.996Z,15.80
2018-10-17T19:02:00.127Z,15.79
2018-10-17T19:04:30.160Z,15.79
2018-10-17T19:07:00.156Z,15.77
2018-10-17T19:09:29.766Z,15.76
2018-10-17T19:11:59.606Z,15.75
2018-10-17T19:14:29.793Z,15.72
2018-10-17T19:17:00.052Z,15.72
2018-10-17T19:19:29.367Z,15.72
2018-10-17T19:21:58.766Z,15.72
2018-10-17T19:24:27.847Z,15.70
2018-10-17T19:26:57.043Z,15.69
2018-10-17T19:29:26.318Z,15.70
2018-10-17T19:31:55.258Z,15.67
2018-10-17T19:34:24.207Z,15.63
2018-10-17T19:36:53.301Z,15.63
2018-10-17T19:39:22.846Z,15.60
2018-10-17T19:41:52.082Z,15.58
2018-10-17T19:44:21.042Z,15.55
2018-10-17T19:46:50.058Z,15.55
2018-10-17T19:49:19.168Z,15.50
2018-10-17T19:51:48.384Z,15.45
2018-10-17T19:54:19.890Z,15.42
2018-10-17T19:56:48.904Z,15.35
2018-10-17T19:59:18.341Z,15.33
2018-10-17T20:01:48.869Z,15.36
2018-10-17T20:04:20.188Z,15.33
2018-10-17T20:06:50.089Z,15.32
2018-10-17T20:09:20.607Z,15.29
2018-10-17T20:11:51.115Z,15.29
2018-10-17T20:14:20.884Z,15.27
2018-10-17T20:16:50.046Z,15.27
2018-10-17T20:19:20.294Z,15.27
2018-10-17T20:21:50.437Z,15.26
2018-10-17T20:24:21.725Z,15.21
2018-10-17T20:26:51.564Z,15.18
2018-10-17T20:29:22.261Z,15.17
2018-10-17T20:31:53.006Z,15.14
2018-10-17T20:34:22.392Z,15.12
2018-10-17T20:36:52.000Z,15.13
2018-10-17T20:39:21.263Z,15.11
2018-10-17T20:41:50.895Z,15.09
2018-10-17T20:44:21.540Z,15.10
2018-10-17T20:46:52.365Z,15.09
2018-10-17T20:49:22.368Z,15.09
2018-10-17T20:51:52.529Z,15.08
2018-10-17T20:54:23.141Z,15.04
2018-10-17T20:56:52.323Z,15.05
2018-10-17T20:59:21.960Z,15.02
2018-10-17T21:01:51.218Z,15.01
2018-10-17T21:04:20.771Z,14.98
2018-10-17T21:06:50.238Z,14.93
2018-10-17T21:09:19.246Z,14.91
2018-10-17T21:11:48.302Z,14.89
2018-10-17T21:14:17.680Z,14.88
2018-10-17T21:16:47.724Z,14.86
2018-10-17T21:19:18.887Z,14.85
2018-10-17T21:21:47.821Z,14.80
2018-10-17T21:24:17.923Z,14.79
2018-10-17T21:26:47.694Z,14.74
2018-10-17T21:29:16.742Z,14.70
2018-10-17T21:31:45.878Z,14.65
2018-10-17T21:34:15.497Z,14.66
2018-10-17T21:36:44.715Z,14.64
2018-10-17T21:39:14.836Z,14.63
2018-10-17T21:41:44.378Z,14.61
2018-10-17T21:44:14.236Z,14.57
2018-10-17T21:46:43.720Z,14.53
2018-10-17T21:49:14.037Z,14.52
2018-10-17T21:51:43.566Z,14.53
2018-10-17T21:54:12.669Z,14.51
2018-10-17T21:56:42.411Z,14.52
2018-10-17T21:59:11.425Z,14.56
2018-10-17T22:01:41.320Z,14.55
2018-10-17T22:04:10.305Z,14.52
2018-10-17T22:06:39.205Z,14.49
2018-10-17T22:09:10.918Z,14.48
2018-10-17T22:11:39.857Z,14.48
2018-10-17T22:14:09.474Z,14.46
2018-10-17T22:16:43.527Z,14.44
2018-10-17T22:19:12.949Z,14.43
2018-10-17T22:21:41.935Z,14.42
2018-10-17T22:24:11.263Z,14.38
2018-10-17T22:26:40.770Z,14.35
2018-10-17T22:29:09.756Z,14.30
2018-10-17T22:31:38.707Z,14.33
2018-10-17T22:34:08.638Z,14.30
2018-10-17T22:36:38.896Z,14.26
2018-10-17T22:39:12.839Z,14.25
2018-10-17T22:41:43.435Z,14.21
2018-10-17T22:44:13.214Z,14.19
2018-10-17T22:46:42.756Z,14.19
2018-10-17T22:49:12.186Z,14.16
2018-10-17T22:51:41.149Z,14.16
2018-10-17T22:54:10.741Z,14.14
2018-10-17T22:56:40.461Z,14.13
2018-10-17T22:59:09.871Z,14.13
2018-10-17T23:01:40.215Z,14.12
2018-10-17T23:04:10.622Z,14.10
2018-10-17T23:06:40.470Z,14.08
2018-10-17T23:09:12.389Z,14.06
2018-10-17T23:11:42.157Z,14.05
2018-10-17T23:14:12.083Z,13.99
2018-10-17T23:16:41.874Z,13.99
2018-10-17T23:19:12.874Z,14.01
2018-10-17T23:21:44.061Z,14.03
2018-10-17T23:24:13.210Z,13.99
2018-10-17T23:26:43.080Z,13.99
2018-10-17T23:29:12.710Z,13.97
2018-10-17T23:31:41.803Z,13.93
2018-10-17T23:34:11.532Z,13.91
2018-10-17T23:36:41.453Z,13.90
2018-10-17T23:39:10.999Z,13.90
2018-10-17T23:41:41.321Z,13.91
2018-10-17T23:44:11.005Z,13.87
2018-10-17T23:46:40.934Z,13.83
2018-10-17T23:49:09.947Z,13.83
2018-10-17T23:51:40.018Z,13.84
2018-10-17T23:54:09.063Z,13.83
2018-10-17T23:56:38.217Z,13.82
2018-10-17T23:59:07.804Z,13.79
